createdAt,value
2017-08-16T00:01:31.824Z,101017.18
2017-08-16T00:03:59.211Z,101024.20
2017-08-16T00:06:26.399Z,101019.80
2017-08-16T00:08:54.026Z,101016.34
2017-08-16T00:11:21.209Z,101019.38
2017-08-16T00:13:48.426Z,101018.95
2017-08-16T00:16:16.193Z,101027.23
2017-08-16T00:18:44.691Z,101032.47
2017-08-16T00:21:12.021Z,101034.19
2017-08-16T00:23:39.212Z,101031.16
2017-08-16T00:26:06.413Z,101036.39
2017-08-16T00:28:33.781Z,101036.39
2017-08-16T00:31:00.964Z,101037.28
2017-08-16T00:33:28.474Z,101042.52
2017-08-16T00:35:56.043Z,101041.20
2017-08-16T00:38:23.213Z,101039.48
2017-08-16T00:40:50.452Z,101043.41
2017-08-16T00:43:18.096Z,101052.52
2017-08-16T00:45:45.371Z,101048.33
2017-08-16T00:48:13.005Z,101045.31
2017-08-16T00:50:40.269Z,101054.08
2017-08-16T00:53:07.455Z,101059.31
2017-08-16T00:55:35.007Z,101067.24
2017-08-16T00:58:02.195Z,101063.11
2017-08-16T01:00:29.591Z,101056.30
2017-08-16T01:02:57.134Z,101065.13
2017-08-16T01:05:24.309Z,101062.96
2017-08-16T01:07:51.557Z,101066.67
2017-08-16T01:10:19.111Z,101065.11
2017-08-16T01:12:46.652Z,101068.20
2017-08-16T01:15:14.146Z,101075.30
2017-08-16T01:17:41.394Z,101077.91
2017-08-16T01:20:08.585Z,101087.96
2017-08-16T01:22:36.172Z,101086.70
2017-08-16T01:25:03.768Z,101091.52
2017-08-16T01:27:30.963Z,101089.38
2017-08-16T01:29:58.147Z,101088.91
2017-08-16T01:32:25.830Z,101094.14
2017-08-16T01:34:53.281Z,101098.95
2017-08-16T01:37:20.802Z,101093.77
2017-08-16T01:39:47.974Z,101092.93
2017-08-16T01:42:15.343Z,101098.17
2017-08-16T01:44:43.411Z,101098.64
2017-08-16T01:47:10.946Z,101095.59
2017-08-16T01:49:38.515Z,101096.49
2017-08-16T01:52:05.689Z,101094.70
2017-08-16T01:54:32.937Z,101096.91
2017-08-16T01:57:00.396Z,101098.22
2017-08-16T01:59:27.854Z,101098.64
2017-08-16T02:01:55.525Z,101108.27
2017-08-16T02:04:22.698Z,101105.65
2017-08-16T02:06:49.885Z,101109.16
2017-08-16T02:09:18.052Z,101106.59
2017-08-16T02:11:45.445Z,101110.47
2017-08-16T02:14:12.893Z,101109.62
2017-08-16T02:16:40.066Z,101107.43
2017-08-16T02:19:07.232Z,101107.90
2017-08-16T02:21:34.661Z,101109.16
2017-08-16T02:24:02.185Z,101110.47
2017-08-16T02:26:29.887Z,101113.55
2017-08-16T02:28:57.337Z,101112.25
2017-08-16T02:31:24.506Z,101114.44
2017-08-16T02:33:52.133Z,101115.75
2017-08-16T02:36:19.399Z,101115.33
2017-08-16T02:38:46.860Z,101117.91
2017-08-16T02:41:14.503Z,101117.48
2017-08-16T02:43:42.090Z,101115.75
2017-08-16T02:46:09.264Z,101125.75
2017-08-16T02:48:36.451Z,101116.17
2017-08-16T02:51:03.645Z,101124.91
2017-08-16T02:53:30.987Z,101123.61
2017-08-16T02:55:58.161Z,101123.55
2017-08-16T02:58:25.343Z,101128.79
2017-08-16T03:00:52.942Z,101129.67
2017-08-16T03:03:20.109Z,101127.90
2017-08-16T03:05:47.551Z,101133.61
2017-08-16T03:08:15.130Z,101134.08
2017-08-16T03:10:42.578Z,101133.19
2017-08-16T03:13:10.039Z,101132.30
2017-08-16T03:15:37.227Z,101135.80
2017-08-16T03:18:04.405Z,101134.08
2017-08-16T03:20:31.573Z,101136.69
2017-08-16T03:22:59.123Z,101132.34
2017-08-16T03:25:26.323Z,101140.62
2017-08-16T03:27:53.505Z,101137.53
2017-08-16T03:30:21.454Z,101149.73
2017-08-16T03:32:49.568Z,101148.47
2017-08-16T03:35:16.809Z,101151.09
2017-08-16T03:37:44.750Z,101148.52
2017-08-16T03:40:12.144Z,101149.36
2017-08-16T03:42:39.332Z,101157.69
2017-08-16T03:45:06.671Z,101155.06
2017-08-16T03:47:33.944Z,101152.88
2017-08-16T03:50:01.122Z,101153.76
2017-08-16T03:52:28.380Z,101157.21
2017-08-16T03:54:55.563Z,101158.58
2017-08-16T03:57:23.213Z,101171.61
2017-08-16T03:59:50.805Z,101167.27
2017-08-16T04:02:18.451Z,101172.08
2017-08-16T04:04:45.629Z,101172.50
2017-08-16T04:07:12.857Z,101177.73
2017-08-16T04:09:40.048Z,101179.16
2017-08-16T04:12:07.222Z,101172.33
2017-08-16T04:14:34.407Z,101181.56
2017-08-16T04:17:01.852Z,101183.00
2017-08-16T04:19:29.225Z,101194.16
2017-08-16T04:21:56.401Z,101192.36
2017-08-16T04:24:23.833Z,101196.42
2017-08-16T04:26:51.006Z,101197.91
2017-08-16T04:29:18.192Z,101202.73
2017-08-16T04:31:45.907Z,101210.93
2017-08-16T04:34:13.356Z,101204.59
2017-08-16T04:36:40.893Z,101215.58
2017-08-16T04:39:08.385Z,101217.83
2017-08-16T04:41:35.578Z,101224.42
2017-08-16T04:44:02.876Z,101225.39
2017-08-16T04:46:30.461Z,101228.90
2017-08-16T04:48:57.730Z,101232.83
2017-08-16T04:51:24.949Z,101233.30
2017-08-16T04:53:52.136Z,101239.41
2017-08-16T04:56:19.555Z,101237.27
2017-08-16T04:58:47.199Z,101235.96
2017-08-16T05:01:14.373Z,101234.19
2017-08-16T05:03:41.563Z,101241.62
2017-08-16T05:06:08.759Z,101239.47
2017-08-16T05:08:36.020Z,101246.43
2017-08-16T05:11:03.488Z,101238.62
2017-08-16T05:13:30.953Z,101243.44
2017-08-16T05:15:58.143Z,101242.98
2017-08-16T05:18:25.425Z,101248.73
2017-08-16T05:20:52.893Z,101249.15
2017-08-16T05:23:20.664Z,101254.38
2017-08-16T05:25:48.113Z,101251.77
2017-08-16T05:28:15.285Z,101247.89
2017-08-16T05:30:42.469Z,101252.66
2017-08-16T05:33:09.657Z,101255.27
2017-08-16T05:35:37.209Z,101262.17
2017-08-16T05:38:04.475Z,101260.82
2017-08-16T05:40:31.663Z,101264.37
2017-08-16T05:42:59.287Z,101265.69
2017-08-16T05:45:26.865Z,101273.12
2017-08-16T05:47:54.305Z,101275.84
2017-08-16T05:50:21.492Z,101277.61
2017-08-16T05:52:48.670Z,101285.47
2017-08-16T05:55:15.837Z,101281.20
2017-08-16T05:57:43.416Z,101281.67
2017-08-16T06:00:10.585Z,101284.24
2017-08-16T06:02:37.772Z,101286.44
2017-08-16T06:05:04.961Z,101292.98
2017-08-16T06:07:32.661Z,101286.48
2017-08-16T06:09:59.883Z,101291.30
2017-08-16T06:12:27.345Z,101291.30
2017-08-16T06:14:54.800Z,101289.58
2017-08-16T06:17:22.028Z,101288.27
2017-08-16T06:19:49.203Z,101293.03
2017-08-16T06:22:16.872Z,101297.43
2017-08-16T06:24:44.060Z,101292.19
2017-08-16T06:27:11.468Z,101293.97
2017-08-16T06:29:38.992Z,101304.02
2017-08-16T06:32:06.176Z,101296.22
2017-08-16T06:34:33.726Z,101295.38
2017-08-16T06:37:00.898Z,101298.78
2017-08-16T06:39:28.336Z,101293.12
2017-08-16T06:41:55.917Z,101301.41
2017-08-16T06:44:23.365Z,101300.98
2017-08-16T06:46:50.538Z,101297.06
2017-08-16T06:49:18.032Z,101297.11
2017-08-16T06:51:45.547Z,101297.95
2017-08-16T06:54:13.063Z,101304.49
2017-08-16T06:56:40.244Z,101305.38
2017-08-16T06:59:07.413Z,101307.58
2017-08-16T07:01:34.643Z,101308.42
2017-08-16T07:04:01.829Z,101308.84
2017-08-16T07:06:29.254Z,101311.45
2017-08-16T07:08:56.422Z,101302.77
2017-08-16T07:11:23.597Z,101304.49
2017-08-16T07:13:51.009Z,101307.16
2017-08-16T07:16:18.647Z,101308.89
2017-08-16T07:18:45.925Z,101305.80
2017-08-16T07:21:13.457Z,101304.13
2017-08-16T07:23:41.023Z,101311.23
2017-08-16T07:26:08.212Z,101312.56
2017-08-16T07:28:35.450Z,101313.34
2017-08-16T07:31:02.975Z,101313.24
2017-08-16T07:33:30.356Z,101309.59
2017-08-16T07:35:57.539Z,101304.22
2017-08-16T07:38:25.027Z,101310.41
2017-08-16T07:40:52.216Z,101306.78
2017-08-16T07:43:19.573Z,101314.94
2017-08-16T07:45:47.229Z,101313.59
2017-08-16T07:48:14.428Z,101309.90
2017-08-16T07:50:41.815Z,101314.81
2017-08-16T07:53:09.092Z,101318.78
2017-08-16T07:55:36.749Z,101316.69
2017-08-16T07:58:04.008Z,101320.66
2017-08-16T08:00:31.468Z,101321.97
2017-08-16T08:02:59.130Z,101322.86
2017-08-16T08:05:26.301Z,101332.91
2017-08-16T08:07:53.561Z,101325.95
2017-08-16T08:10:20.988Z,101324.69
2017-08-16T08:12:48.158Z,101328.61
2017-08-16T08:15:15.787Z,101328.24
2017-08-16T08:17:42.957Z,101329.08
2017-08-16T08:20:10.398Z,101329.97
2017-08-16T08:22:37.570Z,101332.67
2017-08-16T08:25:04.812Z,101336.52
2017-08-16T08:27:32.000Z,101332.67
2017-08-16T08:29:59.412Z,101340.11
2017-08-16T08:32:26.586Z,101337.48
2017-08-16T08:34:53.767Z,101344.84
2017-08-16T08:37:20.942Z,101343.61
2017-08-16T08:39:48.327Z,101340.57
2017-08-16T08:42:15.507Z,101342.35
2017-08-16T08:44:43.121Z,101346.65
2017-08-16T08:47:10.703Z,101340.16
2017-08-16T08:49:37.883Z,101340.57
2017-08-16T08:52:05.065Z,101344.97
2017-08-16T08:54:32.438Z,101337.53
2017-08-16T08:56:59.933Z,101343.66
2017-08-16T08:59:27.425Z,101340.16
2017-08-16T09:01:54.824Z,101341.93
2017-08-16T09:04:21.997Z,101341.93
2017-08-16T09:06:49.430Z,101343.66
2017-08-16T09:09:16.889Z,101344.97
2017-08-16T09:11:44.058Z,101340.20
2017-08-16T09:14:11.240Z,101338.00
2017-08-16T09:16:38.447Z,101338.89
2017-08-16T09:19:05.631Z,101344.55
2017-08-16T09:21:32.951Z,101333.23
2017-08-16T09:24:00.135Z,101337.59
2017-08-16T09:26:27.302Z,101334.59
2017-08-16T09:28:54.704Z,101331.51
2017-08-16T09:31:22.471Z,101323.66
2017-08-16T09:33:50.116Z,101332.77
2017-08-16T09:36:17.289Z,101322.77
2017-08-16T09:38:44.454Z,101328.89
2017-08-16T09:41:11.636Z,101327.11
2017-08-16T09:43:39.341Z,101326.64
2017-08-16T09:46:06.607Z,101321.03
2017-08-16T09:48:34.096Z,101325.38
2017-08-16T09:51:01.288Z,101320.56
2017-08-16T09:53:28.666Z,101312.77
2017-08-16T09:55:56.300Z,101306.64
2017-08-16T09:58:23.573Z,101313.19
2017-08-16T10:00:51.037Z,101312.30
2017-08-16T10:03:18.223Z,101307.06
2017-08-16T10:05:45.640Z,101301.41
2017-08-16T10:08:13.104Z,101301.41
2017-08-16T10:10:40.292Z,101302.72
2017-08-16T10:13:07.470Z,101295.75
2017-08-16T10:15:34.861Z,101300.98
2017-08-16T10:18:02.382Z,101298.37
2017-08-16T10:20:29.553Z,101294.44
2017-08-16T10:22:57.015Z,101295.33
2017-08-16T10:25:24.377Z,101295.33
2017-08-16T10:27:51.545Z,101293.59
2017-08-16T10:30:18.731Z,101287.47
2017-08-16T10:32:46.133Z,101295.75
2017-08-16T10:35:13.652Z,101299.25
2017-08-16T10:37:41.168Z,101296.64
2017-08-16T10:40:08.710Z,101299.25
2017-08-16T10:42:35.877Z,101297.52
2017-08-16T10:45:03.297Z,101295.33
2017-08-16T10:47:30.470Z,101293.92
2017-08-16T10:49:57.906Z,101289.20
2017-08-16T10:52:25.101Z,101293.39
2017-08-16T10:54:52.277Z,101286.55
2017-08-16T10:57:19.450Z,101283.92
2017-08-16T10:59:47.404Z,101279.28
2017-08-16T11:02:14.697Z,101285.70
2017-08-16T11:04:42.211Z,101283.70
2017-08-16T11:07:09.381Z,101289.32
2017-08-16T11:09:37.076Z,101285.96
2017-08-16T11:12:04.245Z,101282.19
2017-08-16T11:14:31.676Z,101288.78
2017-08-16T11:16:58.864Z,101288.41
2017-08-16T11:19:26.051Z,101290.14
2017-08-16T11:21:53.468Z,101291.03
2017-08-16T11:24:21.124Z,101298.92
2017-08-16T11:26:48.348Z,101290.23
2017-08-16T11:29:15.811Z,101296.36
2017-08-16T11:31:43.254Z,101291.59
2017-08-16T11:34:10.769Z,101291.13
2017-08-16T11:36:38.182Z,101292.02
2017-08-16T11:39:05.737Z,101284.63
2017-08-16T11:41:33.169Z,101287.25
2017-08-16T11:44:00.738Z,101286.36
2017-08-16T11:46:28.008Z,101285.55
2017-08-16T11:48:55.648Z,101282.85
2017-08-16T11:51:22.825Z,101284.24
2017-08-16T11:53:50.077Z,101283.74
2017-08-16T11:56:17.427Z,101281.13
2017-08-16T11:58:44.610Z,101277.20
2017-08-16T12:01:12.146Z,101279.48
2017-08-16T12:03:39.332Z,101280.70
2017-08-16T12:06:06.502Z,101275.08
2017-08-16T12:08:33.684Z,101266.86
2017-08-16T12:11:01.040Z,101266.80
2017-08-16T12:13:28.573Z,101256.80
2017-08-16T12:15:56.089Z,101259.38
2017-08-16T12:18:23.414Z,101255.49
2017-08-16T12:20:50.599Z,101251.56
2017-08-16T12:23:18.143Z,101250.68
2017-08-16T12:25:45.314Z,101253.34
2017-08-16T12:28:12.700Z,101259.89
2017-08-16T12:30:39.888Z,101255.91
2017-08-16T12:33:07.233Z,101257.69
2017-08-16T12:35:34.423Z,101254.19
2017-08-16T12:38:01.590Z,101249.42
2017-08-16T12:40:28.838Z,101247.22
2017-08-16T12:42:56.148Z,101241.14
2017-08-16T12:45:23.617Z,101239.37
2017-08-16T12:47:51.052Z,101235.44
2017-08-16T12:50:18.226Z,101232.41
2017-08-16T12:52:45.663Z,101223.24
2017-08-16T12:55:12.847Z,101220.20
2017-08-16T12:57:40.273Z,101222.83
2017-08-16T13:00:08.044Z,101221.94
2017-08-16T13:02:35.497Z,101224.55
2017-08-16T13:05:02.995Z,101229.37
2017-08-16T13:07:30.720Z,101231.09
2017-08-16T13:09:58.371Z,101224.55
2017-08-16T13:12:25.633Z,101217.12
2017-08-16T13:14:52.805Z,101218.00
2017-08-16T13:17:20.596Z,101218.00
2017-08-16T13:19:48.000Z,101218.89
2017-08-16T13:22:15.532Z,101216.28
2017-08-16T13:24:42.709Z,101213.66
2017-08-16T13:27:10.117Z,101212.35
2017-08-16T13:29:37.632Z,101212.35
2017-08-16T13:32:05.176Z,101217.12
2017-08-16T13:34:32.785Z,101216.70
2017-08-16T13:36:59.962Z,101211.05
2017-08-16T13:39:27.133Z,101211.52
2017-08-16T13:41:54.301Z,101214.13
2017-08-16T13:44:21.965Z,101216.75
2017-08-16T13:46:49.728Z,101215.44
2017-08-16T13:49:17.177Z,101217.64
2017-08-16T13:51:44.632Z,101220.25
2017-08-16T13:54:12.288Z,101221.98
2017-08-16T13:56:39.462Z,101219.78
2017-08-16T13:59:06.630Z,101216.70
2017-08-16T14:01:33.805Z,101219.78
2017-08-16T14:04:01.150Z,101221.52
2017-08-16T14:06:28.321Z,101214.55
2017-08-16T14:08:55.502Z,101206.28
2017-08-16T14:11:22.691Z,101212.82
2017-08-16T14:13:49.876Z,101210.20
2017-08-16T14:16:17.823Z,101209.78
2017-08-16T14:18:44.993Z,101207.58
2017-08-16T14:21:12.450Z,101203.29
2017-08-16T14:23:39.738Z,101205.58
2017-08-16T14:26:06.914Z,101205.17
2017-08-16T14:28:34.086Z,101192.91
2017-08-16T14:31:01.255Z,101200.00
2017-08-16T14:33:28.644Z,101192.02
2017-08-16T14:35:55.815Z,101194.48
2017-08-16T14:38:23.445Z,101192.36
2017-08-16T14:40:50.703Z,101188.55
2017-08-16T14:43:17.891Z,101189.75
2017-08-16T14:45:45.523Z,101184.70
2017-08-16T14:48:12.745Z,101185.73
2017-08-16T14:50:40.693Z,101179.66
2017-08-16T14:53:07.861Z,101181.39
2017-08-16T14:55:35.149Z,101174.06
2017-08-16T14:58:02.336Z,101173.64
2017-08-16T15:00:29.749Z,101175.79
2017-08-16T15:02:57.216Z,101177.56
2017-08-16T15:05:24.400Z,101179.34
2017-08-16T15:07:51.574Z,101177.62
2017-08-16T15:10:19.146Z,101173.27
2017-08-16T15:12:46.425Z,101173.69
2017-08-16T15:15:14.006Z,101169.77
2017-08-16T15:17:41.339Z,101168.92
2017-08-16T15:20:09.108Z,101171.07
2017-08-16T15:22:36.557Z,101166.30
2017-08-16T15:25:03.733Z,101165.89
2017-08-16T15:27:31.042Z,101162.85
2017-08-16T15:29:58.223Z,101165.89
2017-08-16T15:32:25.753Z,101161.55
2017-08-16T15:34:53.850Z,101159.39
2017-08-16T15:37:21.026Z,101154.16
2017-08-16T15:39:48.216Z,101151.95
2017-08-16T15:42:15.696Z,101157.20
2017-08-16T15:44:43.237Z,101158.03
2017-08-16T15:47:10.731Z,101155.55
2017-08-16T15:49:37.902Z,101157.20
2017-08-16T15:52:05.316Z,101156.30
2017-08-16T15:54:32.524Z,101158.59
2017-08-16T15:56:59.697Z,101152.94
2017-08-16T15:59:27.868Z,101158.59
2017-08-16T16:01:55.386Z,101162.52
2017-08-16T16:04:22.927Z,101164.62
2017-08-16T16:06:50.111Z,101163.32
2017-08-16T16:09:17.514Z,101161.59
2017-08-16T16:11:44.770Z,101160.70
2017-08-16T16:14:12.449Z,101159.81
2017-08-16T16:16:39.636Z,101158.97
2017-08-16T16:19:06.905Z,101160.23
2017-08-16T16:21:34.800Z,101157.67
2017-08-16T16:24:02.616Z,101156.36
2017-08-16T16:26:30.332Z,101159.39
2017-08-16T16:28:58.217Z,101158.97
2017-08-16T16:31:25.403Z,101158.97
2017-08-16T16:33:52.586Z,101158.17
2017-08-16T16:36:19.779Z,101157.67
2017-08-16T16:38:47.019Z,101149.42
2017-08-16T16:41:14.579Z,101152.52
2017-08-16T16:43:42.153Z,101135.50
2017-08-16T16:46:09.497Z,101118.48
2017-08-16T16:48:36.673Z,101115.87
2017-08-16T16:51:04.103Z,101116.76
2017-08-16T16:53:31.750Z,101121.98
2017-08-16T16:55:59.012Z,101129.38
2017-08-16T16:58:26.529Z,101135.08
2017-08-16T17:00:53.980Z,101139.84
2017-08-16T17:03:21.567Z,101138.11
2017-08-16T17:05:49.452Z,101140.73
2017-08-16T17:08:16.635Z,101136.81
2017-08-16T17:10:45.340Z,101140.73
2017-08-16T17:13:12.528Z,101139.84
2017-08-16T17:15:39.702Z,101142.05
2017-08-16T17:18:07.052Z,101138.67
2017-08-16T17:20:34.226Z,101144.27
2017-08-16T17:23:01.394Z,101139.66
2017-08-16T17:25:28.813Z,101143.06
2017-08-16T17:27:56.260Z,101139.66
2017-08-16T17:30:23.719Z,101142.64
2017-08-16T17:32:51.378Z,101139.66
2017-08-16T17:35:18.716Z,101132.70
2017-08-16T17:37:46.815Z,101135.16
2017-08-16T17:40:14.352Z,101138.67
2017-08-16T17:42:41.932Z,101134.84
2017-08-16T17:45:09.392Z,101131.99
2017-08-16T17:47:37.033Z,101132.41
2017-08-16T17:50:05.423Z,101133.02
2017-08-16T17:52:35.792Z,101131.81
2017-08-16T17:55:06.591Z,101132.44
2017-08-16T17:57:34.355Z,101135.59
2017-08-16T18:00:01.797Z,101134.36
2017-08-16T18:02:29.511Z,101130.17
2017-08-16T18:04:56.695Z,101122.75
2017-08-16T18:07:24.792Z,101122.70
2017-08-16T18:09:52.363Z,101124.38
2017-08-16T18:12:19.902Z,101113.74
2017-08-16T18:14:47.887Z,101120.76
2017-08-16T18:17:15.933Z,101121.21
2017-08-16T18:19:43.616Z,101120.03
2017-08-16T18:22:11.025Z,101121.63
2017-08-16T18:24:39.157Z,101125.25
2017-08-16T18:27:06.329Z,101130.59
2017-08-16T18:29:33.879Z,101134.56
2017-08-16T18:32:01.319Z,101138.55
2017-08-16T18:34:28.911Z,101141.21
2017-08-16T18:36:57.346Z,101133.83
2017-08-16T18:39:24.971Z,101136.03
2017-08-16T18:41:52.887Z,101138.22
2017-08-16T18:44:20.403Z,101136.50
2017-08-16T18:46:47.796Z,101137.86
2017-08-16T18:49:15.785Z,101134.77
2017-08-16T18:51:43.433Z,101136.97
2017-08-16T18:54:11.367Z,101136.63
2017-08-16T18:56:39.392Z,101129.67
2017-08-16T18:59:06.929Z,101130.09
2017-08-16T19:01:34.605Z,101134.91
2017-08-16T19:04:02.018Z,101143.23
2017-08-16T19:06:29.306Z,101141.92
2017-08-16T19:08:56.754Z,101139.30
2017-08-16T19:11:24.523Z,101138.87
2017-08-16T19:13:52.039Z,101148.05
2017-08-16T19:16:20.131Z,101148.09
2017-08-16T19:18:48.028Z,101146.37
2017-08-16T19:21:15.438Z,101148.52
2017-08-16T19:23:43.233Z,101154.69
2017-08-16T19:26:11.023Z,101148.52
2017-08-16T19:28:38.262Z,101151.19
2017-08-16T19:31:05.910Z,101140.34
2017-08-16T19:33:33.170Z,101144.69
2017-08-16T19:36:00.821Z,101144.69
2017-08-16T19:38:28.082Z,101144.69
2017-08-16T19:40:55.531Z,101146.47
2017-08-16T19:43:23.146Z,101139.50
2017-08-16T19:45:50.690Z,101145.11
2017-08-16T19:48:19.101Z,101143.44
2017-08-16T19:50:46.671Z,101143.44
2017-08-16T19:53:14.105Z,101139.50
2017-08-16T19:55:41.287Z,101141.70
2017-08-16T19:58:08.977Z,101140.81
2017-08-16T20:00:36.493Z,101140.34
2017-08-16T20:03:04.014Z,101132.59
2017-08-16T20:05:31.189Z,101133.02
2017-08-16T20:07:58.492Z,101133.84
2017-08-16T20:10:26.138Z,101136.05
2017-08-16T20:12:53.720Z,101129.92
2017-08-16T20:15:21.173Z,101127.36
2017-08-16T20:17:48.690Z,101127.73
2017-08-16T20:20:15.958Z,101123.85
2017-08-16T20:22:43.169Z,101128.20
2017-08-16T20:25:10.699Z,101125.58
2017-08-16T20:27:38.141Z,101128.20
2017-08-16T20:30:05.612Z,101128.66
2017-08-16T20:32:33.978Z,101126.00
2017-08-16T20:35:03.526Z,101133.43
2017-08-16T20:37:33.774Z,101127.36
2017-08-16T20:40:01.028Z,101123.43
2017-08-16T20:42:28.414Z,101124.32
2017-08-16T20:44:56.840Z,101128.66
2017-08-16T20:47:27.137Z,101128.66
2017-08-16T20:49:54.422Z,101124.73
2017-08-16T20:52:21.632Z,101119.08
2017-08-16T20:54:49.709Z,101114.27
2017-08-16T20:57:17.117Z,101111.65
2017-08-16T20:59:45.064Z,101114.73
2017-08-16T21:02:12.452Z,101119.08
2017-08-16T21:04:39.649Z,101119.92
2017-08-16T21:07:06.990Z,101113.02
2017-08-16T21:09:34.967Z,101106.00
2017-08-16T21:12:02.157Z,101100.76
2017-08-16T21:14:29.365Z,101096.83
2017-08-16T21:16:57.647Z,101092.06
2017-08-16T21:19:25.991Z,101093.38
2017-08-16T21:21:53.366Z,101096.68
2017-08-16T21:24:21.039Z,101091.36
2017-08-16T21:26:48.301Z,101086.41
2017-08-16T21:29:15.640Z,101088.11
2017-08-16T21:31:43.098Z,101077.02
2017-08-16T21:34:10.754Z,101064.81
2017-08-16T21:36:37.925Z,101059.27
2017-08-16T21:39:05.113Z,101057.26
2017-08-16T21:41:32.282Z,101061.43
2017-08-16T21:44:00.380Z,101059.69
2017-08-16T21:46:27.881Z,101062.51
2017-08-16T21:48:55.291Z,101060.89
2017-08-16T21:51:22.824Z,101056.12
2017-08-16T21:53:49.989Z,101056.17
2017-08-16T21:56:17.180Z,101054.45
2017-08-16T21:58:44.701Z,101056.64
2017-08-16T22:01:11.888Z,101051.88
2017-08-16T22:03:39.061Z,101040.60
2017-08-16T22:06:06.257Z,101038.88
2017-08-16T22:08:33.997Z,101037.63
2017-08-16T22:11:02.105Z,101029.77
2017-08-16T22:13:29.755Z,101037.15
2017-08-16T22:15:57.333Z,101032.80
2017-08-16T22:18:24.965Z,101028.45
2017-08-16T22:20:52.552Z,101034.11
2017-08-16T22:23:20.197Z,101023.69
2017-08-16T22:25:47.776Z,101018.03
2017-08-16T22:28:15.225Z,101016.26
2017-08-16T22:30:42.680Z,101017.20
2017-08-16T22:33:10.141Z,101011.91
2017-08-16T22:35:37.328Z,101012.75
2017-08-16T22:38:04.737Z,101009.34
2017-08-16T22:40:32.197Z,101007.62
2017-08-16T22:42:59.380Z,101006.78
2017-08-16T22:45:26.568Z,101014.16
2017-08-16T22:47:53.738Z,101007.62
2017-08-16T22:50:20.906Z,101003.69
2017-08-16T22:52:48.458Z,101006.36
2017-08-16T22:55:16.033Z,101006.36
2017-08-16T22:57:43.201Z,101008.03
2017-08-16T23:00:10.373Z,101002.44
2017-08-16T23:02:37.546Z,101008.09
2017-08-16T23:05:05.249Z,101008.09
2017-08-16T23:07:32.421Z,101008.56
2017-08-16T23:09:59.604Z,101009.03
2017-08-16T23:12:26.792Z,101009.03
2017-08-16T23:14:53.961Z,101012.07
2017-08-16T23:17:21.129Z,101012.91
2017-08-16T23:19:48.298Z,101003.37
2017-08-16T23:22:15.470Z,101006.36
2017-08-16T23:24:43.060Z,101000.29
2017-08-16T23:27:10.514Z,101000.70
2017-08-16T23:29:38.169Z,101005.53
2017-08-16T23:32:05.423Z,101000.77
2017-08-16T23:34:32.892Z,101005.11
2017-08-16T23:37:00.076Z,101003.33
2017-08-16T23:39:27.413Z,100983.74
2017-08-16T23:41:54.647Z,100978.92
2017-08-16T23:44:21.997Z,100983.33
2017-08-16T23:46:49.238Z,100982.44
2017-08-16T23:49:16.423Z,100976.78
2017-08-16T23:51:43.597Z,100977.25
2017-08-16T23:54:11.009Z,100979.40
2017-08-16T23:56:38.462Z,100973.33
2017-08-16T23:59:05.638Z,100977.20
